Time;durP1;ratioP1;P1;durP2;ratioP2;P2;SDS_P1;SDS_P2;PMS_P1;PMS_P2;Temp;Humidity;BMP_temperature;BMP_pressure;BME280_temperature;BME280_humidity;BME280_pressure;Samples;Min_cycle;Max_cycle;Signal;HPM_P1;HPM_P2
2022/04/19 00:01:28;;;;;;;3.90;1.80;;;;;;;;;;6222497;23;20099;-81
2022/04/19 00:03:56;;;;;;;4.60;2.00;;;;;;;;;;6223353;23;20096;-81
2022/04/19 00:06:24;;;;;;;5.40;2.25;;;;;;;;;;6210964;23;20047;-82
2022/04/19 00:08:52;;;;;;;5.15;2.10;;;;;;;;;;6220683;23;20020;-81
2022/04/19 00:11:21;;;;;;;5.28;2.53;;;;;;;;;;6194764;23;20095;-82
2022/04/19 00:14:42;;;;;;;4.57;2.50;;;;;;;;;;6219922;23;20096;-86
2022/04/19 00:24:28;;;;;;;6.75;2.70;;;;;;;;;;6043400;23;20025;-87
2022/04/19 00:48:31;;;;;;;5.97;2.92;;;;;;;;;;6046744;23;20095;-87
2022/04/19 00:57:11;;;;;;;6.30;3.35;;;;;;;;;;6076650;23;20019;-78
2022/04/19 00:59:41;;;;;;;7.45;3.03;;;;;;;;;;6068607;23;20490;-78
2022/04/19 01:02:50;;;;;;;5.55;2.55;;;;;;;;;;6092832;23;20116;-85
2022/04/19 01:06:52;;;;;;;6.45;2.90;;;;;;;;;;5970664;24;20105;-86
2022/04/19 01:09:53;;;;;;;6.28;3.20;;;;;;;;;;5950115;24;20037;-86
2022/04/19 01:17:19;;;;;;;6.10;3.08;;;;;;;;;;5926599;24;20064;-85
2022/04/19 01:55:02;;;;;;;7.57;3.45;;;;;;;;;;5673723;25;20100;-87
2022/04/19 01:57:58;;;;;;;;;;;;;;;;;;5109916;27;20128;-77
2022/04/19 02:00:34;;;;;;;6.55;2.95;;;;;;;;;;5093151;28;19959;-77
2022/04/19 02:03:03;;;;;;;5.45;3.03;;;;;;;;;;5078794;28;20143;-86
2022/04/19 02:05:30;;;;;;;7.95;3.72;;;;;;;;;;5091515;28;20082;-87
2022/04/19 02:08:02;;;;;;;5.90;3.28;;;;;;;;;;5070834;28;20094;-85
2022/04/19 02:10:33;;;;;;;7.45;3.08;;;;;;;;;;5093263;28;20046;-85
2022/04/19 02:13:01;;;;;;;5.97;3.28;;;;;;;;;;5092204;28;20115;-85
2022/04/19 02:15:32;;;;;;;8.32;3.38;;;;;;;;;;5096579;28;20489;-86
2022/04/19 02:18:10;;;;;;;8.90;3.42;;;;;;;;;;5090717;28;20496;-85
2022/04/19 02:20:37;;;;;;;10.25;3.80;;;;;;;;;;5091383;28;20032;-86
2022/04/19 02:23:05;;;;;;;6.75;3.50;;;;;;;;;;5089458;28;20031;-86
2022/04/19 02:26:34;;;;;;;8.70;3.80;;;;;;;;;;5093481;28;20036;-86
2022/04/19 02:29:01;;;;;;;8.88;3.88;;;;;;;;;;5096556;28;20040;-86
2022/04/19 02:31:41;;;;;;;9.43;3.60;;;;;;;;;;5089504;28;20060;-85
2022/04/19 02:34:09;;;;;;;8.82;3.70;;;;;;;;;;5097691;28;20040;-86
2022/04/19 02:36:39;;;;;;;8.43;3.53;;;;;;;;;;5091904;28;20388;-86
2022/04/19 02:39:07;;;;;;;7.22;3.50;;;;;;;;;;5091852;28;20056;-86
2022/04/19 02:41:36;;;;;;;7.45;3.65;;;;;;;;;;5096084;28;20036;-86
2022/04/19 02:44:08;;;;;;;6.10;3.30;;;;;;;;;;5103347;28;20071;-86
2022/04/19 02:46:35;;;;;;;7.63;3.35;;;;;;;;;;5105115;28;20051;-85
2022/04/19 02:49:06;;;;;;;6.15;3.30;;;;;;;;;;5105184;28;20067;-85
2022/04/19 02:51:35;;;;;;;7.50;3.72;;;;;;;;;;5103760;28;20050;-86
2022/04/19 02:54:03;;;;;;;7.40;3.67;;;;;;;;;;5107231;28;20069;-86
2022/04/19 02:56:31;;;;;;;7.05;3.70;;;;;;;;;;5107906;28;20416;-86
2022/04/19 02:59:00;;;;;;;5.90;3.33;;;;;;;;;;5106166;28;20048;-86
2022/04/19 03:01:27;;;;;;;5.97;3.70;;;;;;;;;;5105809;28;20128;-86
2022/04/19 03:03:55;;;;;;;10.32;3.78;;;;;;;;;;5108071;28;20095;-86
2022/04/19 03:06:24;;;;;;;5.90;3.25;;;;;;;;;;5106513;28;20032;-86
2022/04/19 03:08:51;;;;;;;8.23;3.50;;;;;;;;;;5081455;28;20104;-77
2022/04/19 03:11:19;;;;;;;6.55;3.13;;;;;;;;;;5084969;28;20079;-77
2022/04/19 03:13:47;;;;;;;5.00;2.95;;;;;;;;;;5102052;28;20036;-77
2022/04/19 03:16:19;;;;;;;7.22;3.58;;;;;;;;;;5089983;28;20033;-82
2022/04/19 03:18:47;;;;;;;8.65;3.53;;;;;;;;;;5091326;28;20111;-82
2022/04/19 03:21:15;;;;;;;5.93;3.08;;;;;;;;;;5094270;28;20036;-82
2022/04/19 03:29:20;;;;;;;9.45;3.60;;;;;;;;;;5087513;28;20054;-82
2022/04/19 03:31:47;;;;;;;7.13;3.40;;;;;;;;;;5079851;28;20048;-82
2022/04/19 03:34:15;;;;;;;5.30;2.65;;;;;;;;;;5085638;28;20044;-82
2022/04/19 03:36:47;;;;;;;7.43;3.58;;;;;;;;;;5096929;28;20098;-82
2022/04/19 03:39:15;;;;;;;6.57;3.25;;;;;;;;;;5079606;28;20052;-82
2022/04/19 03:41:57;;;;;;;8.27;3.17;;;;;;;;;;5081029;28;20087;-82
2022/04/19 03:44:25;;;;;;;6.95;3.50;;;;;;;;;;5082288;28;20102;-82
2022/04/19 03:47:08;;;;;;;7.22;3.38;;;;;;;;;;5079268;28;20064;-82
2022/04/19 03:49:40;;;;;;;7.55;3.55;;;;;;;;;;5094115;28;20462;-82
2022/04/19 03:52:08;;;;;;;7.03;3.38;;;;;;;;;;5066605;28;20063;-82
2022/04/19 03:54:36;;;;;;;6.40;3.30;;;;;;;;;;5075305;28;20069;-85
2022/04/19 03:57:07;;;;;;;6.78;3.20;;;;;;;;;;5089936;28;20337;-85
2022/04/19 03:59:41;;;;;;;6.95;3.30;;;;;;;;;;5072985;28;20190;-85
2022/04/19 04:02:15;;;;;;;6.70;3.00;;;;;;;;;;5062925;28;20045;-85
2022/04/19 04:04:44;;;;;;;7.57;3.92;;;;;;;;;;5074844;28;20040;-85
2022/04/19 04:07:12;;;;;;;6.97;3.50;;;;;;;;;;5077837;28;20035;-85
2022/04/19 04:09:41;;;;;;;7.15;3.42;;;;;;;;;;5081506;28;20036;-86
2022/04/19 04:12:12;;;;;;;7.22;3.80;;;;;;;;;;5078816;28;20135;-86
2022/04/19 04:14:41;;;;;;;8.75;3.03;;;;;;;;;;5078871;28;20051;-86
2022/04/19 04:17:10;;;;;;;7.00;3.30;;;;;;;;;;5058986;28;20040;-86
2022/04/19 04:19:37;;;;;;;8.27;3.45;;;;;;;;;;5076583;28;20033;-86
2022/04/19 04:22:06;;;;;;;6.28;3.65;;;;;;;;;;5075177;28;20117;-77
2022/04/19 04:24:33;;;;;;;9.55;3.50;;;;;;;;;;5074247;28;20163;-77
2022/04/19 04:27:01;;;;;;;5.70;3.20;;;;;;;;;;5076166;28;20041;-85
2022/04/19 04:29:31;;;;;;;7.43;3.45;;;;;;;;;;5091287;28;20047;-85
2022/04/19 04:31:59;;;;;;;10.30;3.88;;;;;;;;;;5101299;28;20039;-85
2022/04/19 04:34:27;;;;;;;5.90;3.35;;;;;;;;;;5107785;28;20040;-85
2022/04/19 04:36:55;;;;;;;10.63;4.03;;;;;;;;;;5077594;28;20063;-85
2022/04/19 04:39:25;;;;;;;6.20;3.53;;;;;;;;;;5092134;28;20631;-85
2022/04/19 04:42:11;;;;;;;7.72;3.50;;;;;;;;;;5092579;28;20040;-85
2022/04/19 04:44:39;;;;;;;6.38;3.53;;;;;;;;;;5086837;28;20055;-85
2022/04/19 04:49:53;;;;;;;8.85;4.03;;;;;;;;;;5074821;28;20044;-85
2022/04/19 04:52:21;;;;;;;8.63;4.18;;;;;;;;;;5070665;28;20490;-85
2022/04/19 04:54:51;;;;;;;9.20;3.70;;;;;;;;;;5076413;28;20076;-85
2022/04/19 04:57:23;;;;;;;7.60;3.58;;;;;;;;;;5075447;28;20041;-85
2022/04/19 04:59:51;;;;;;;10.07;3.53;;;;;;;;;;5057933;28;20044;-85
2022/04/19 05:02:23;;;;;;;8.73;3.78;;;;;;;;;;5073075;28;20040;-85
2022/04/19 05:04:51;;;;;;;10.52;4.40;;;;;;;;;;5076326;28;20091;-86
2022/04/19 05:07:19;;;;;;;7.65;3.70;;;;;;;;;;5084071;28;20032;-86
2022/04/19 05:09:59;;;;;;;10.35;4.55;;;;;;;;;;5069844;28;20072;-86
2022/04/19 05:12:27;;;;;;;7.55;4.15;;;;;;;;;;5078740;28;20125;-85
2022/04/19 05:14:55;;;;;;;9.35;4.30;;;;;;;;;;5057525;28;20131;-85
2022/04/19 05:17:23;;;;;;;10.48;5.00;;;;;;;;;;5093212;28;20060;-85
2022/04/19 05:19:54;;;;;;;9.88;4.30;;;;;;;;;;5064513;28;20394;-85
2022/04/19 05:22:22;;;;;;;10.90;4.53;;;;;;;;;;5078082;28;20059;-76
2022/04/19 05:24:49;;;;;;;9.05;4.50;;;;;;;;;;5059009;28;20044;-76
2022/04/19 05:27:17;;;;;;;9.93;4.82;;;;;;;;;;5069099;28;20033;-76
2022/04/19 05:29:47;;;;;;;9.40;5.00;;;;;;;;;;5068632;28;20043;-76
2022/04/19 05:32:16;;;;;;;8.85;4.80;;;;;;;;;;5076303;28;20105;-75
2022/04/19 05:34:43;;;;;;;10.77;4.57;;;;;;;;;;5076718;28;20048;-76
2022/04/19 05:37:11;;;;;;;11.00;4.72;;;;;;;;;;5050147;28;20039;-75
2022/04/19 05:39:39;;;;;;;7.63;4.78;;;;;;;;;;5069972;28;20113;-76
2022/04/19 05:42:07;;;;;;;7.25;4.00;;;;;;;;;;5074298;28;20116;-75
2022/04/19 05:44:37;;;;;;;8.30;3.90;;;;;;;;;;5060080;28;20577;-75
2022/04/19 05:47:04;;;;;;;8.55;4.30;;;;;;;;;;5073853;28;20050;-76
2022/04/19 05:49:31;;;;;;;7.10;4.07;;;;;;;;;;5091849;28;20123;-74
2022/04/19 05:51:59;;;;;;;9.05;4.32;;;;;;;;;;5072790;28;20048;-75
2022/04/19 05:54:27;;;;;;;8.32;4.10;;;;;;;;;;5097088;28;20066;-76
2022/04/19 05:56:57;;;;;;;6.32;3.78;;;;;;;;;;5083429;28;20665;-76
2022/04/19 05:59:25;;;;;;;9.63;4.32;;;;;;;;;;5082233;28;20044;-75
2022/04/19 06:04:53;;;;;;;12.50;4.95;;;;;;;;;;5074571;28;20064;-76
2022/04/19 06:07:29;;;;;;;8.40;4.38;;;;;;;;;;5061906;28;20028;-75
2022/04/19 06:10:01;;;;;;;10.43;4.50;;;;;;;;;;5072480;28;20386;-75
2022/04/19 06:12:31;;;;;;;8.57;3.97;;;;;;;;;;5074882;28;20063;-75
2022/04/19 06:14:59;;;;;;;9.60;4.97;;;;;;;;;;5075336;28;20346;-75
2022/04/19 06:17:32;;;;;;;8.88;4.30;;;;;;;;;;5077769;28;20024;-75
2022/04/19 06:20:06;;;;;;;8.38;4.13;;;;;;;;;;5075121;28;20097;-75
2022/04/19 06:22:34;;;;;;;7.03;4.03;;;;;;;;;;5076535;28;20139;-76
2022/04/19 06:25:07;;;;;;;7.47;3.97;;;;;;;;;;5088324;28;20040;-75
2022/04/19 06:27:35;;;;;;;8.32;4.57;;;;;;;;;;5075790;28;20044;-75
2022/04/19 06:30:06;;;;;;;8.20;4.15;;;;;;;;;;5076163;28;20163;-76
2022/04/19 06:32:36;;;;;;;9.40;4.25;;;;;;;;;;5052262;28;20049;-76
2022/04/19 06:35:04;;;;;;;6.97;3.90;;;;;;;;;;5091166;28;20056;-76
2022/04/19 06:37:33;;;;;;;9.25;4.03;;;;;;;;;;5073437;28;20060;-76
2022/04/19 06:40:10;;;;;;;13.40;4.30;;;;;;;;;;5088435;28;20602;-76
2022/04/19 06:42:37;;;;;;;9.55;4.43;;;;;;;;;;5072202;28;20074;-76
2022/04/19 06:45:14;;;;;;;6.75;3.90;;;;;;;;;;5078866;28;20044;-76
2022/04/19 06:47:57;;;;;;;8.35;4.20;;;;;;;;;;5094726;28;20891;-76
2022/04/19 06:50:25;;;;;;;7.93;3.58;;;;;;;;;;5093524;28;20068;-76
2022/04/19 06:52:55;;;;;;;10.25;3.90;;;;;;;;;;5093807;28;20123;-76
2022/04/19 06:55:41;;;;;;;12.70;4.28;;;;;;;;;;5078370;28;20215;-76
2022/04/19 06:58:09;;;;;;;7.30;3.60;;;;;;;;;;5077638;28;20083;-76
2022/04/19 07:00:37;;;;;;;6.63;4.10;;;;;;;;;;5078006;28;20040;-76
2022/04/19 07:03:05;;;;;;;9.75;4.38;;;;;;;;;;5076122;28;20067;-76
2022/04/19 07:06:11;;;;;;;7.55;3.80;;;;;;;;;;5055243;28;20082;-76
2022/04/19 07:08:39;;;;;;;7.65;3.92;;;;;;;;;;5024697;28;20052;-76
2022/04/19 07:11:07;;;;;;;8.82;4.18;;;;;;;;;;5054610;28;20448;-76
2022/04/19 07:13:53;;;;;;;8.05;3.72;;;;;;;;;;5027283;28;20074;-76
2022/04/19 07:16:41;;;;;;;8.35;4.18;;;;;;;;;;5055507;28;20064;-76
2022/04/19 07:19:09;;;;;;;8.73;3.72;;;;;;;;;;5055748;28;20846;-76
2022/04/19 07:27:45;;;;;;;6.90;3.83;;;;;;;;;;5014250;28;20602;-76
2022/04/19 07:30:14;;;;;;;4.82;2.78;;;;;;;;;;5001948;28;20092;-76
2022/04/19 07:32:42;;;;;;;6.15;2.40;;;;;;;;;;4994234;28;20068;-76
2022/04/19 07:35:17;;;;;;;5.05;1.80;;;;;;;;;;4998498;28;20503;-76
2022/04/19 07:37:45;;;;;;;5.22;2.00;;;;;;;;;;4988702;28;20116;-77
2022/04/19 07:40:13;;;;;;;4.22;1.90;;;;;;;;;;4987669;28;20049;-77
2022/04/19 07:42:42;;;;;;;4.47;2.10;;;;;;;;;;4990207;28;20053;-77
2022/04/19 07:45:12;;;;;;;4.57;1.90;;;;;;;;;;5009401;28;20049;-76
2022/04/19 07:47:43;;;;;;;3.58;1.20;;;;;;;;;;4989767;28;20048;-76
2022/04/19 07:50:13;;;;;;;5.05;1.90;;;;;;;;;;5007266;28;20058;-76
2022/04/19 07:52:41;;;;;;;7.07;2.00;;;;;;;;;;5011247;28;20319;-78
2022/04/19 07:55:09;;;;;;;5.13;1.75;;;;;;;;;;5030884;28;20067;-78
2022/04/19 07:57:37;;;;;;;7.30;2.00;;;;;;;;;;5074180;28;20047;-77
2022/04/19 08:00:06;;;;;;;2.92;1.55;;;;;;;;;;5074604;28;20775;-78
2022/04/19 08:02:41;;;;;;;3.22;1.70;;;;;;;;;;5072671;28;20043;-78
2022/04/19 08:05:14;;;;;;;4.38;2.00;;;;;;;;;;5074167;28;20109;-78
2022/04/19 08:07:41;;;;;;;3.42;1.80;;;;;;;;;;5087585;28;20032;-77
2022/04/19 08:10:09;;;;;;;3.15;1.70;;;;;;;;;;5072850;28;20055;-76
2022/04/19 08:12:37;;;;;;;4.75;1.90;;;;;;;;;;5070182;28;20132;-76
2022/04/19 08:15:05;;;;;;;7.07;2.00;;;;;;;;;;5072893;28;20071;-77
2022/04/19 08:17:34;;;;;;;3.17;1.77;;;;;;;;;;5056159;28;20494;-77
2022/04/19 08:20:02;;;;;;;3.88;1.45;;;;;;;;;;5073578;28;20044;-77
2022/04/19 08:22:30;;;;;;;5.60;1.80;;;;;;;;;;5073491;28;20136;-78
2022/04/19 08:25:04;;;;;;;4.38;1.52;;;;;;;;;;5072240;28;20040;-77
2022/04/19 08:27:31;;;;;;;6.03;1.80;;;;;;;;;;5085940;28;20032;-78
2022/04/19 08:29:59;;;;;;;4.18;2.03;;;;;;;;;;5068725;28;20524;-77
2022/04/19 08:32:27;;;;;;;4.50;2.10;;;;;;;;;;5069814;28;20062;-77
2022/04/19 08:34:56;;;;;;;3.72;2.15;;;;;;;;;;5068430;28;20075;-77
2022/04/19 08:37:30;;;;;;;5.18;2.20;;;;;;;;;;5090202;28;20052;-76
2022/04/19 08:39:58;;;;;;;4.38;2.00;;;;;;;;;;5069677;28;20050;-76
2022/04/19 08:42:29;;;;;;;5.05;2.22;;;;;;;;;;5068038;28;20958;-76
2022/04/19 08:45:01;;;;;;;5.50;2.42;;;;;;;;;;5070604;28;20076;-76
2022/04/19 08:47:37;;;;;;;4.95;2.50;;;;;;;;;;5069179;28;20044;-77
2022/04/19 08:50:11;;;;;;;5.18;2.20;;;;;;;;;;5071383;28;20082;-77
2022/04/19 08:52:41;;;;;;;6.10;2.38;;;;;;;;;;5067928;28;20049;-77
2022/04/19 08:57:56;;;;;;;4.63;2.58;;;;;;;;;;5076750;28;20905;-76
2022/04/19 09:00:24;;;;;;;7.10;2.70;;;;;;;;;;5071701;28;20033;-77
2022/04/19 09:02:53;;;;;;;5.88;2.75;;;;;;;;;;5068740;28;20071;-77
2022/04/19 09:05:26;;;;;;;5.75;2.60;;;;;;;;;;5069638;28;20043;-77
2022/04/19 09:07:57;;;;;;;6.20;2.30;;;;;;;;;;5069070;28;20083;-77
2022/04/19 09:10:27;;;;;;;6.95;2.47;;;;;;;;;;5074369;28;20049;-77
2022/04/19 09:12:56;;;;;;;6.65;2.80;;;;;;;;;;5069691;28;21262;-77
2022/04/19 09:15:31;;;;;;;6.10;2.55;;;;;;;;;;5070109;28;20067;-77
2022/04/19 09:18:00;;;;;;;4.55;2.05;;;;;;;;;;5069834;28;20033;-77
2022/04/19 09:20:28;;;;;;;5.82;2.47;;;;;;;;;;5072182;28;20385;-77
2022/04/19 09:23:10;;;;;;;5.75;2.83;;;;;;;;;;5074162;28;20043;-78
2022/04/19 09:25:41;;;;;;;6.63;2.88;;;;;;;;;;5053522;28;20033;-79
2022/04/19 09:28:17;;;;;;;6.45;2.70;;;;;;;;;;5064999;28;20060;-78
2022/04/19 09:30:51;;;;;;;5.10;2.72;;;;;;;;;;5066667;28;20044;-78
2022/04/19 09:33:20;;;;;;;5.25;2.63;;;;;;;;;;5063784;28;20071;-78
2022/04/19 09:35:50;;;;;;;6.10;2.65;;;;;;;;;;5069546;28;20052;-78
2022/04/19 09:38:18;;;;;;;7.45;2.58;;;;;;;;;;5063501;28;20036;-78
2022/04/19 09:40:48;;;;;;;7.47;3.13;;;;;;;;;;5072607;28;20043;-78
2022/04/19 09:43:37;;;;;;;6.20;2.70;;;;;;;;;;5066733;28;20044;-78
2022/04/19 09:46:05;;;;;;;10.23;3.05;;;;;;;;;;5062690;28;20510;-79
2022/04/19 09:48:35;;;;;;;6.57;2.30;;;;;;;;;;5069748;28;20043;-79
2022/04/19 09:51:11;;;;;;;7.45;2.72;;;;;;;;;;5071198;28;20089;-81
2022/04/19 09:53:47;;;;;;;6.22;2.40;;;;;;;;;;5073984;28;20361;-79
2022/04/19 09:56:18;;;;;;;6.47;2.55;;;;;;;;;;5071494;28;20067;-79
2022/04/19 09:59:06;;;;;;;5.07;2.40;;;;;;;;;;5070854;28;20122;-77
2022/04/19 10:09:52;;;;;;;5.15;2.40;;;;;;;;;;5067103;28;20055;-78
2022/04/19 10:12:20;;;;;;;5.35;2.38;;;;;;;;;;5069972;28;20040;-78
2022/04/19 10:14:49;;;;;;;5.30;2.03;;;;;;;;;;5072569;28;20040;-78
2022/04/19 10:17:16;;;;;;;6.68;2.60;;;;;;;;;;5073145;28;20949;-78
2022/04/19 10:19:47;;;;;;;6.93;2.30;;;;;;;;;;5075871;28;20055;-78
2022/04/19 10:22:15;;;;;;;4.53;2.10;;;;;;;;;;5075726;28;20041;-81
2022/04/19 10:24:45;;;;;;;5.10;2.20;;;;;;;;;;5072413;28;20501;-78
2022/04/19 10:27:13;;;;;;;6.85;2.35;;;;;;;;;;5075376;28;20078;-78
2022/04/19 10:29:44;;;;;;;4.10;1.95;;;;;;;;;;5076079;28;20064;-78
2022/04/19 10:32:11;;;;;;;6.72;2.20;;;;;;;;;;5067988;28;20488;-78
2022/04/19 10:34:40;;;;;;;3.80;1.90;;;;;;;;;;5069702;28;20051;-78
2022/04/19 10:37:23;;;;;;;5.90;2.25;;;;;;;;;;5071553;28;20037;-78
2022/04/19 10:39:57;;;;;;;5.85;2.60;;;;;;;;;;5070534;28;20568;-78
2022/04/19 10:42:28;;;;;;;4.85;2.10;;;;;;;;;;5079170;28;20900;-78
2022/04/19 10:44:55;;;;;;;5.22;2.15;;;;;;;;;;5076384;28;20109;-78
2022/04/19 10:47:23;;;;;;;4.60;1.58;;;;;;;;;;5076297;28;20111;-79
2022/04/19 10:50:02;;;;;;;4.07;1.75;;;;;;;;;;5071599;28;20040;-78
2022/04/19 10:52:39;;;;;;;3.65;1.63;;;;;;;;;;5076648;28;20036;-78
2022/04/19 10:55:18;;;;;;;4.20;1.60;;;;;;;;;;5073319;28;20151;-78
2022/04/19 11:00:34;;;;;;;5.28;2.10;;;;;;;;;;5067967;28;20625;-78
2022/04/19 11:03:25;;;;;;;3.58;1.67;;;;;;;;;;5072959;28;20044;-78
2022/04/19 11:05:55;;;;;;;4.03;1.40;;;;;;;;;;5076553;28;20052;-78
2022/04/19 11:08:25;;;;;;;4.13;1.10;;;;;;;;;;5074138;28;20078;-78
2022/04/19 11:10:52;;;;;;;3.38;1.40;;;;;;;;;;5071243;28;20846;-78
2022/04/19 11:13:27;;;;;;;7.50;1.52;;;;;;;;;;5069566;28;20036;-78
2022/04/19 11:15:58;;;;;;;2.80;1.30;;;;;;;;;;5071951;28;20067;-78
2022/04/19 11:18:30;;;;;;;3.08;1.42;;;;;;;;;;5075409;28;20048;-78
2022/04/19 11:21:04;;;;;;;2.83;1.13;;;;;;;;;;5075243;28;20541;-78
2022/04/19 11:23:44;;;;;;;1.75;0.95;;;;;;;;;;5072185;28;20056;-78
2022/04/19 11:26:30;;;;;;;2.92;1.33;;;;;;;;;;5069812;28;20067;-78
2022/04/19 11:29:10;;;;;;;3.55;1.30;;;;;;;;;;5072137;28;20029;-78
2022/04/19 11:31:44;;;;;;;4.10;1.60;;;;;;;;;;5070685;28;20123;-78
2022/04/19 11:34:13;;;;;;;2.50;1.08;;;;;;;;;;5071508;28;20051;-78
2022/04/19 11:36:43;;;;;;;3.05;1.40;;;;;;;;;;5077620;28;20050;-78
2022/04/19 11:47:46;;;;;;;7.05;1.48;;;;;;;;;;5076687;28;20041;-77
2022/04/19 11:50:30;;;;;;;3.60;1.45;;;;;;;;;;5064169;28;20032;-77
2022/04/19 11:53:18;;;;;;;1.90;1.00;;;;;;;;;;5069205;28;20093;-78
2022/04/19 11:55:57;;;;;;;2.42;1.10;;;;;;;;;;5072989;28;20045;-78
2022/04/19 11:58:25;;;;;;;1.95;1.00;;;;;;;;;;5069865;28;20044;-77
2022/04/19 12:01:19;;;;;;;2.65;1.00;;;;;;;;;;5070236;28;20125;-77
2022/04/19 12:03:46;;;;;;;2.08;1.00;;;;;;;;;;5074470;28;20056;-78
2022/04/19 12:06:18;;;;;;;2.92;1.65;;;;;;;;;;5070748;28;20036;-78
2022/04/19 12:08:51;;;;;;;3.75;0.88;;;;;;;;;;5059798;28;20050;-78
2022/04/19 12:11:27;;;;;;;2.63;0.95;;;;;;;;;;5088286;28;20044;-78
2022/04/19 12:13:56;;;;;;;1.55;0.70;;;;;;;;;;5070456;28;20033;-78
2022/04/19 12:16:30;;;;;;;2.75;0.90;;;;;;;;;;5074024;28;20028;-78
2022/04/19 12:19:03;;;;;;;1.48;0.50;;;;;;;;;;5073881;28;20397;-78
2022/04/19 12:21:39;;;;;;;1.83;0.70;;;;;;;;;;5069968;28;20052;-78
2022/04/19 12:24:23;;;;;;;5.40;0.70;;;;;;;;;;5069477;28;20139;-78
2022/04/19 12:26:52;;;;;;;1.65;0.70;;;;;;;;;;5071380;28;20136;-78
2022/04/19 12:29:18;;;;;;;0.98;0.50;;;;;;;;;;5072334;28;20043;-78
2022/04/19 12:31:56;;;;;;;1.65;0.80;;;;;;;;;;5071477;28;20045;-78
2022/04/19 12:34:38;;;;;;;1.13;0.60;;;;;;;;;;5069114;28;20044;-78
2022/04/19 12:37:07;;;;;;;1.55;0.60;;;;;;;;;;5074811;28;20059;-78
2022/04/19 12:39:34;;;;;;;3.47;0.90;;;;;;;;;;5078634;28;20041;-79
2022/04/19 12:42:07;;;;;;;1.80;0.77;;;;;;;;;;5074699;28;20044;-79
2022/04/19 12:44:36;;;;;;;1.08;0.55;;;;;;;;;;5077370;28;20036;-79
2022/04/19 12:47:14;;;;;;;2.22;0.93;;;;;;;;;;5085708;28;20033;-79
2022/04/19 12:49:47;;;;;;;2.08;0.80;;;;;;;;;;5081764;28;20028;-78
2022/04/19 12:52:15;;;;;;;1.70;0.45;;;;;;;;;;5070376;28;20470;-78
2022/04/19 12:54:45;;;;;;;1.45;0.80;;;;;;;;;;5083235;28;20075;-78
2022/04/19 12:57:14;;;;;;;3.15;0.80;;;;;;;;;;5089804;28;20454;-78
2022/04/19 12:59:43;;;;;;;1.30;0.55;;;;;;;;;;5084593;28;20060;-78
2022/04/19 13:02:15;;;;;;;4.57;0.73;;;;;;;;;;5079229;28;20048;-78
2022/04/19 13:04:43;;;;;;;2.60;0.90;;;;;;;;;;5079428;28;20055;-78
2022/04/19 13:12:45;;;;;;;1.58;0.68;;;;;;;;;;5068902;28;20054;-78
2022/04/19 13:15:13;;;;;;;1.70;0.70;;;;;;;;;;5069884;28;20123;-79
2022/04/19 13:17:41;;;;;;;1.58;0.80;;;;;;;;;;5068541;28;20469;-77
2022/04/19 13:20:10;;;;;;;1.92;0.80;;;;;;;;;;5070268;28;20093;-78
2022/04/19 13:22:39;;;;;;;2.05;0.88;;;;;;;;;;5070781;28;20044;-78
2022/04/19 13:25:07;;;;;;;2.58;1.20;;;;;;;;;;5065322;28;20127;-77
2022/04/19 13:27:35;;;;;;;2.85;0.88;;;;;;;;;;5068626;28;20055;-78
2022/04/19 13:30:04;;;;;;;2.00;0.93;;;;;;;;;;5070503;28;20472;-78
2022/04/19 13:32:33;;;;;;;4.55;1.10;;;;;;;;;;5069343;28;20058;-78
2022/04/19 13:35:00;;;;;;;2.17;1.10;;;;;;;;;;5068246;28;20040;-78
2022/04/19 13:40:20;;;;;;;2.28;1.15;;;;;;;;;;5070772;28;20048;-78
2022/04/19 13:42:49;;;;;;;4.38;1.30;;;;;;;;;;5067873;28;20040;-79
2022/04/19 13:45:44;;;;;;;3.90;1.38;;;;;;;;;;5100306;27;20148;-78
2022/04/19 13:48:12;;;;;;;2.45;1.45;;;;;;;;;;5058987;28;20033;-79
2022/04/19 13:50:40;;;;;;;6.70;2.00;;;;;;;;;;5059151;28;20040;-78
2022/04/19 13:53:09;;;;;;;2.63;1.27;;;;;;;;;;5061654;28;21217;-78
2022/04/19 13:55:36;;;;;;;5.47;1.63;;;;;;;;;;5064522;28;20044;-79
2022/04/19 13:58:04;;;;;;;2.50;1.50;;;;;;;;;;5059810;28;20056;-79
2022/04/19 14:00:33;;;;;;;4.10;1.65;;;;;;;;;;5058142;28;20479;-78
2022/04/19 14:03:04;;;;;;;3.65;1.80;;;;;;;;;;5092682;28;20071;-78
2022/04/19 14:05:34;;;;;;;3.95;1.90;;;;;;;;;;5060166;28;20036;-79
2022/04/19 14:08:03;;;;;;;4.50;1.95;;;;;;;;;;5062164;28;20040;-79
2022/04/19 14:10:30;;;;;;;6.95;2.65;;;;;;;;;;5059053;28;20039;-79
2022/04/19 14:12:58;;;;;;;3.60;1.90;;;;;;;;;;5060560;28;20457;-78
2022/04/19 14:15:26;;;;;;;4.93;2.10;;;;;;;;;;5060295;28;20041;-78
2022/04/19 14:17:55;;;;;;;6.70;2.10;;;;;;;;;;5059594;28;20043;-78
2022/04/19 14:20:22;;;;;;;6.00;2.00;;;;;;;;;;5056947;28;20060;-78
2022/04/19 14:22:50;;;;;;;3.63;1.98;;;;;;;;;;5092478;28;20048;-78
2022/04/19 14:25:19;;;;;;;3.67;2.00;;;;;;;;;;5050383;28;20108;-79
2022/04/19 14:27:48;;;;;;;6.07;2.67;;;;;;;;;;5061824;28;20059;-79
2022/04/19 14:33:15;;;;;;;7.55;2.50;;;;;;;;;;5063370;28;20551;-78
2022/04/19 14:35:43;;;;;;;4.93;2.22;;;;;;;;;;5043147;28;20473;-78
2022/04/19 14:38:11;;;;;;;3.80;2.13;;;;;;;;;;5093383;28;20040;-78
2022/04/19 14:40:39;;;;;;;5.03;2.33;;;;;;;;;;5070752;28;20041;-79
2022/04/19 14:43:06;;;;;;;4.45;2.38;;;;;;;;;;5057770;28;20425;-79
2022/04/19 14:45:35;;;;;;;5.53;2.60;;;;;;;;;;5094403;28;20102;-78
2022/04/19 14:48:03;;;;;;;4.13;2.15;;;;;;;;;;5062362;28;20052;-78
2022/04/19 14:52:13;;;;;;;5.88;2.50;;;;;;;;;;5062032;28;20049;-79
2022/04/19 14:53:20;;;;;;;4.28;2.40;;;;;;;;;;5061670;28;20045;-79
2022/04/19 14:55:48;;;;;;;4.05;2.38;;;;;;;;;;5053224;28;20068;-78
2022/04/19 14:58:16;;;;;;;4.40;2.60;;;;;;;;;;5052074;28;20045;-78
2022/04/19 15:00:44;;;;;;;5.88;2.63;;;;;;;;;;5064906;28;20045;-78
2022/04/19 15:03:12;;;;;;;4.63;2.63;;;;;;;;;;5055712;28;20459;-79
2022/04/19 15:05:41;;;;;;;4.07;2.50;;;;;;;;;;5048781;28;20045;-79
2022/04/19 15:08:08;;;;;;;5.10;2.78;;;;;;;;;;5059332;28;20045;-79
2022/04/19 15:10:37;;;;;;;5.65;2.60;;;;;;;;;;5042068;28;20593;-79
2022/04/19 15:13:14;;;;;;;4.45;2.55;;;;;;;;;;5047988;28;20047;-78
2022/04/19 15:15:42;;;;;;;3.13;1.70;;;;;;;;;;5047668;28;20029;-78
2022/04/19 15:18:10;;;;;;;4.80;2.65;;;;;;;;;;5042543;28;20041;-78
2022/04/19 15:20:39;;;;;;;5.10;2.45;;;;;;;;;;5044078;28;20049;-78
2022/04/19 15:23:07;;;;;;;7.18;2.20;;;;;;;;;;5048535;28;20642;-79
2022/04/19 15:25:35;;;;;;;4.60;2.08;;;;;;;;;;5047566;28;20033;-79
2022/04/19 15:28:05;;;;;;;4.55;2.33;;;;;;;;;;5043689;28;20072;-78
2022/04/19 15:30:32;;;;;;;4.72;2.50;;;;;;;;;;5060849;28;20044;-78
2022/04/19 15:33:00;;;;;;;6.32;2.28;;;;;;;;;;5046285;28;20745;-78
2022/04/19 15:35:28;;;;;;;5.28;2.30;;;;;;;;;;5045335;28;20616;-78
2022/04/19 15:37:56;;;;;;;4.88;2.00;;;;;;;;;;5079784;28;20108;-78
2022/04/19 15:40:25;;;;;;;7.40;2.85;;;;;;;;;;5046714;28;20079;-78
2022/04/19 15:42:52;;;;;;;4.85;2.25;;;;;;;;;;5045023;28;20086;-78
2022/04/19 15:45:20;;;;;;;5.47;2.28;;;;;;;;;;5049113;28;20148;-78
2022/04/19 15:47:48;;;;;;;4.70;2.63;;;;;;;;;;5046981;28;20051;-79
2022/04/19 15:50:16;;;;;;;8.27;2.08;;;;;;;;;;5046722;28;20038;-78
2022/04/19 15:52:44;;;;;;;5.22;1.88;;;;;;;;;;5047285;28;20453;-77
2022/04/19 15:55:13;;;;;;;6.18;2.35;;;;;;;;;;5045440;28;20083;-77
2022/04/19 15:57:41;;;;;;;4.47;2.05;;;;;;;;;;5046044;28;20041;-78
2022/04/19 16:00:09;;;;;;;5.97;2.05;;;;;;;;;;5041861;28;20469;-75
2022/04/19 16:02:36;;;;;;;4.97;2.83;;;;;;;;;;5045041;28;20041;-76
2022/04/19 16:05:07;;;;;;;4.97;2.30;;;;;;;;;;5046497;28;20128;-76
2022/04/19 16:07:34;;;;;;;4.95;2.47;;;;;;;;;;5047701;28;20132;-75
2022/04/19 16:10:03;;;;;;;4.82;2.50;;;;;;;;;;5045570;28;20045;-76
2022/04/19 16:12:30;;;;;;;7.90;2.67;;;;;;;;;;5041510;28;20859;-74
2022/04/19 16:14:58;;;;;;;5.35;2.25;;;;;;;;;;5039053;28;20041;-79
2022/04/19 16:25:44;;;;;;;5.00;2.45;;;;;;;;;;5046171;28;20041;-77
2022/04/19 16:28:12;;;;;;;4.78;2.80;;;;;;;;;;5045183;28;20068;-77
2022/04/19 16:30:40;;;;;;;5.03;2.40;;;;;;;;;;5046741;28;20047;-76
2022/04/19 16:33:08;;;;;;;5.05;2.58;;;;;;;;;;5064773;28;20042;-76
2022/04/19 16:35:36;;;;;;;6.32;2.10;;;;;;;;;;5047660;28;20448;-76
2022/04/19 16:38:04;;;;;;;7.32;2.22;;;;;;;;;;5046599;28;20076;-76
2022/04/19 16:40:32;;;;;;;5.65;2.50;;;;;;;;;;5047869;28;20052;-76
2022/04/19 16:43:01;;;;;;;4.43;2.03;;;;;;;;;;5046124;28;21016;-76
2022/04/19 16:45:28;;;;;;;3.85;2.30;;;;;;;;;;5047525;28;20178;-76
2022/04/19 16:47:56;;;;;;;4.93;2.10;;;;;;;;;;5046029;28;20052;-76
2022/04/19 16:50:25;;;;;;;5.43;1.90;;;;;;;;;;5042661;28;20136;-75
2022/04/19 16:52:52;;;;;;;5.07;2.08;;;;;;;;;;5048091;28;20110;-76
2022/04/19 16:55:20;;;;;;;6.90;2.00;;;;;;;;;;5045549;28;20155;-77
2022/04/19 16:57:49;;;;;;;6.00;2.42;;;;;;;;;;5046133;28;20379;-76
2022/04/19 17:00:19;;;;;;;3.47;1.85;;;;;;;;;;5048203;28;20033;-76
2022/04/19 17:02:48;;;;;;;5.03;1.95;;;;;;;;;;5045810;28;20392;-76
2022/04/19 17:05:17;;;;;;;6.28;2.78;;;;;;;;;;5045612;28;20163;-76
2022/04/19 17:07:45;;;;;;;5.13;2.25;;;;;;;;;;5044983;28;20506;-76
2022/04/19 17:10:13;;;;;;;5.38;2.30;;;;;;;;;;5046092;28;20033;-76
2022/04/19 17:12:40;;;;;;;5.13;2.10;;;;;;;;;;5044180;28;20040;-75
2022/04/19 17:15:09;;;;;;;4.32;2.00;;;;;;;;;;5046373;28;20866;-75
2022/04/19 17:17:36;;;;;;;5.70;2.10;;;;;;;;;;5047879;28;20123;-75
2022/04/19 17:20:05;;;;;;;4.57;2.15;;;;;;;;;;5047029;28;20102;-75
2022/04/19 17:22:32;;;;;;;4.93;2.13;;;;;;;;;;5048634;28;20479;-75